createdAt,value
2022-12-12T00:03:20.052Z,25.39
2022-12-12T00:08:27.180Z,25.53
2022-12-12T00:13:34.308Z,25.60
2022-12-12T00:18:41.528Z,25.60
2022-12-12T00:23:48.706Z,25.71
2022-12-12T00:28:55.893Z,25.61
2022-12-12T00:34:03.007Z,25.47
2022-12-12T00:39:15.192Z,25.45
2022-12-12T00:44:17.355Z,25.33
2022-12-12T00:49:24.536Z,25.17
2022-12-12T00:54:31.746Z,25.01
2022-12-12T00:59:38.987Z,24.87
2022-12-12T01:04:46.111Z,24.72
2022-12-12T01:09:53.334Z,24.48
2022-12-12T01:15:00.555Z,24.29
2022-12-12T01:20:07.699Z,24.12
2022-12-12T01:25:15.238Z,23.90
2022-12-12T01:30:22.306Z,23.76
2022-12-12T01:35:29.368Z,23.58
2022-12-12T01:40:36.612Z,23.41
2022-12-12T01:45:43.930Z,23.28
2022-12-12T01:50:50.941Z,23.16
2022-12-12T01:55:58.169Z,23.01
2022-12-12T02:01:05.391Z,22.95
2022-12-12T02:06:12.557Z,22.83
2022-12-12T02:11:19.689Z,22.65
2022-12-12T02:16:27.090Z,22.54
2022-12-12T02:21:33.989Z,22.52
2022-12-12T02:26:41.148Z,22.40
2022-12-12T02:31:48.387Z,22.27
2022-12-12T02:36:55.475Z,22.16
2022-12-12T02:42:02.687Z,22.01
2022-12-12T02:47:09.960Z,21.85
2022-12-12T02:52:17.088Z,21.69
2022-12-12T02:57:24.262Z,21.59
2022-12-12T03:02:31.629Z,21.44
2022-12-12T03:07:38.850Z,21.31
2022-12-12T03:12:46.074Z,21.19
2022-12-12T03:17:53.276Z,21.06
2022-12-12T03:23:00.451Z,20.98
2022-12-12T03:28:07.761Z,20.89
2022-12-12T03:33:15.206Z,20.75
2022-12-12T03:38:22.343Z,20.66
2022-12-12T03:43:29.471Z,20.55
2022-12-12T03:48:36.731Z,20.48
2022-12-12T03:53:43.908Z,20.37
2022-12-12T03:58:51.104Z,20.29
2022-12-12T04:03:58.342Z,20.18
2022-12-12T04:09:05.513Z,20.05
2022-12-12T04:14:12.630Z,19.99
2022-12-12T04:19:19.866Z,19.92
2022-12-12T04:24:27.030Z,19.81
2022-12-12T04:29:34.275Z,19.72
2022-12-12T04:34:41.517Z,19.62
2022-12-12T04:39:48.704Z,19.59
2022-12-12T04:44:55.886Z,19.48
2022-12-12T04:50:03.165Z,19.41
2022-12-12T04:55:10.712Z,19.32
2022-12-12T05:00:17.529Z,19.25
2022-12-12T05:05:24.753Z,19.16
2022-12-12T05:10:31.957Z,19.16
2022-12-12T05:15:44.697Z,19.07
2022-12-12T05:20:46.414Z,18.98
2022-12-12T05:25:53.565Z,18.92
2022-12-12T05:31:00.803Z,18.86
2022-12-12T05:36:08.141Z,18.80
2022-12-12T05:41:15.319Z,18.78
2022-12-12T05:46:22.548Z,18.68
2022-12-12T05:51:29.761Z,18.63
2022-12-12T05:56:36.835Z,18.56
2022-12-12T06:01:43.990Z,18.51
2022-12-12T06:06:51.170Z,18.54
2022-12-12T06:11:58.346Z,18.57
2022-12-12T06:17:05.508Z,18.63
2022-12-12T06:22:12.732Z,18.67
2022-12-12T06:27:19.853Z,18.69
2022-12-12T06:32:27.018Z,18.67
2022-12-12T06:37:34.248Z,18.63
2022-12-12T06:42:47.711Z,18.56
2022-12-12T06:47:48.735Z,18.49
2022-12-12T06:52:55.934Z,18.40
2022-12-12T06:58:03.151Z,18.37
2022-12-12T07:03:10.420Z,18.29
2022-12-12T07:08:17.705Z,18.24
2022-12-12T07:13:24.757Z,18.19
2022-12-12T07:18:31.933Z,18.13
2022-12-12T07:23:39.129Z,18.04
2022-12-12T07:28:46.338Z,17.94
2022-12-12T07:33:53.569Z,17.90
2022-12-12T07:39:00.922Z,17.94
2022-12-12T07:44:08.051Z,18.09
2022-12-12T07:49:15.284Z,18.24
2022-12-12T07:54:22.543Z,18.32
2022-12-12T07:59:29.722Z,18.34
2022-12-12T08:04:37.015Z,18.36
2022-12-12T08:09:44.231Z,18.27
2022-12-12T08:14:51.413Z,18.20
2022-12-12T08:19:58.667Z,18.11
2022-12-12T08:25:05.963Z,18.08
2022-12-12T08:30:13.129Z,18.00
2022-12-12T08:35:20.341Z,17.92
2022-12-12T08:40:27.639Z,18.21
2022-12-12T08:45:34.819Z,18.42
2022-12-12T08:50:42.026Z,18.71
2022-12-12T08:55:49.287Z,18.98
2022-12-12T09:00:56.404Z,19.21
2022-12-12T09:06:03.603Z,19.42
2022-12-12T09:11:10.865Z,19.59
2022-12-12T09:16:18.188Z,19.75
2022-12-12T09:21:25.288Z,19.88
2022-12-12T09:26:33.023Z,20.05
2022-12-12T09:31:39.761Z,20.21
2022-12-12T09:36:46.929Z,20.36
2022-12-12T09:41:54.132Z,20.49
2022-12-12T09:47:01.309Z,20.55
2022-12-12T09:52:08.531Z,20.55
2022-12-12T09:57:15.747Z,20.50
2022-12-12T10:02:23.020Z,20.47
2022-12-12T10:07:30.137Z,20.40
2022-12-12T10:12:37.426Z,20.37
2022-12-12T10:17:44.559Z,20.30
2022-12-12T10:22:51.765Z,20.18
2022-12-12T10:27:59.032Z,20.07
2022-12-12T10:33:06.228Z,20.00
2022-12-12T10:38:13.446Z,19.92
2022-12-12T10:43:20.714Z,19.83
2022-12-12T10:48:27.915Z,19.75
2022-12-12T10:53:35.135Z,19.67
2022-12-12T10:58:42.404Z,19.57
2022-12-12T11:03:49.601Z,19.51
2022-12-12T11:08:56.802Z,19.46
2022-12-12T11:14:04.428Z,19.33
2022-12-12T11:19:11.624Z,19.27
2022-12-12T11:24:18.840Z,19.21
2022-12-12T11:29:26.046Z,19.14
2022-12-12T11:34:34.122Z,19.11
2022-12-12T11:39:40.464Z,19.15
2022-12-12T11:44:47.734Z,19.25
2022-12-12T11:49:55.438Z,19.29
2022-12-12T11:55:02.648Z,19.32
2022-12-12T12:00:09.931Z,19.30
2022-12-12T12:05:17.153Z,19.29
2022-12-12T12:10:24.797Z,19.27
2022-12-12T12:15:31.624Z,19.23
2022-12-12T12:20:38.820Z,19.18
2022-12-12T12:25:46.110Z,19.12
2022-12-12T12:30:53.394Z,19.07
2022-12-12T12:36:00.493Z,18.98
2022-12-12T12:41:07.699Z,18.92
2022-12-12T12:46:14.993Z,18.85
2022-12-12T12:51:22.102Z,18.79
2022-12-12T12:56:29.312Z,18.81
2022-12-12T13:01:36.645Z,18.82
2022-12-12T13:06:43.713Z,18.83
2022-12-12T13:11:50.917Z,18.95
2022-12-12T13:16:58.165Z,18.99
2022-12-12T13:22:05.344Z,19.05
2022-12-12T13:27:12.530Z,19.06
2022-12-12T13:32:19.762Z,19.03
2022-12-12T13:37:26.954Z,18.96
2022-12-12T13:42:34.195Z,18.95
2022-12-12T13:47:41.480Z,18.92
2022-12-12T13:52:48.684Z,18.85
2022-12-12T13:57:55.868Z,18.80
2022-12-12T14:03:03.160Z,18.73
2022-12-12T14:08:10.350Z,18.68
2022-12-12T14:13:17.506Z,18.61
2022-12-12T14:18:29.777Z,18.53
2022-12-12T14:23:31.906Z,18.55
2022-12-12T14:28:39.120Z,18.63
2022-12-12T14:33:46.428Z,18.72
2022-12-12T14:38:53.542Z,18.83
2022-12-12T14:44:37.120Z,18.89
2022-12-12T14:49:08.170Z,18.91
2022-12-12T14:54:15.329Z,18.88
2022-12-12T14:59:22.548Z,18.84
2022-12-12T15:04:29.773Z,18.83
2022-12-12T15:09:36.998Z,18.77
2022-12-12T15:14:44.260Z,18.70
2022-12-12T15:19:51.532Z,18.67
2022-12-12T15:24:58.710Z,18.59
2022-12-12T15:30:06.085Z,18.55
2022-12-12T15:35:13.205Z,18.49
2022-12-12T15:40:20.392Z,18.46
2022-12-12T15:45:27.583Z,18.39
2022-12-12T15:50:34.812Z,18.33
2022-12-12T15:55:41.966Z,18.37
2022-12-12T16:00:49.235Z,18.43
2022-12-12T16:05:56.497Z,18.50
2022-12-12T16:11:03.686Z,18.56
2022-12-12T16:16:10.948Z,18.65
2022-12-12T16:21:18.159Z,18.67
2022-12-12T16:26:25.325Z,18.69
2022-12-12T16:31:32.597Z,18.69
2022-12-12T16:36:42.180Z,18.65
2022-12-12T16:41:46.927Z,18.61
2022-12-12T16:46:54.131Z,18.56
2022-12-12T16:52:01.362Z,18.52
2022-12-12T16:57:08.553Z,18.44
2022-12-12T17:02:15.760Z,18.40
2022-12-12T17:07:22.967Z,18.36
2022-12-12T17:12:30.486Z,18.28
2022-12-12T17:17:37.850Z,18.24
2022-12-12T17:22:45.402Z,18.26
2022-12-12T17:27:52.707Z,18.52
2022-12-12T17:33:37.192Z,18.92
2022-12-12T17:38:43.147Z,19.27
2022-12-12T17:43:55.305Z,19.51
2022-12-12T17:48:57.479Z,19.70
2022-12-12T17:54:04.703Z,19.87
2022-12-12T17:59:11.891Z,20.09
2022-12-12T18:04:21.850Z,20.28
2022-12-12T18:09:26.330Z,20.40
2022-12-12T18:14:33.439Z,20.61
2022-12-12T18:19:40.925Z,20.78
2022-12-12T18:24:48.525Z,21.01
2022-12-12T18:29:55.825Z,21.19
2022-12-12T18:35:03.207Z,21.27
2022-12-12T18:40:11.105Z,21.31
2022-12-12T18:45:18.547Z,21.34
2022-12-12T18:50:26.151Z,21.43
2022-12-12T18:55:33.788Z,21.54
2022-12-12T19:00:41.177Z,21.63
2022-12-12T19:05:48.792Z,21.70
2022-12-12T19:10:56.429Z,21.80
2022-12-12T19:16:03.916Z,21.84
2022-12-12T19:21:11.531Z,21.92
2022-12-12T19:26:19.272Z,21.99
2022-12-12T19:31:26.867Z,22.11
2022-12-12T19:36:34.481Z,22.28
2022-12-12T19:41:42.063Z,22.37
2022-12-12T19:46:49.644Z,22.53
2022-12-12T19:51:57.122Z,22.65
2022-12-12T19:57:04.632Z,22.78
2022-12-12T20:02:12.037Z,22.87
2022-12-12T20:07:19.550Z,23.00
2022-12-12T20:12:28.152Z,23.08
2022-12-12T20:17:35.700Z,23.17
2022-12-12T20:22:43.419Z,23.24
2022-12-12T20:27:50.761Z,23.30
2022-12-12T20:32:58.249Z,23.41
2022-12-12T20:38:05.571Z,23.38
2022-12-12T20:43:13.122Z,23.51
2022-12-12T20:48:20.379Z,23.58
2022-12-12T20:53:30.898Z,23.54
2022-12-12T20:58:35.315Z,23.57
2022-12-12T21:03:42.696Z,23.62
2022-12-12T21:08:50.012Z,23.70
2022-12-12T21:13:57.433Z,23.71
2022-12-12T21:19:04.724Z,23.74
2022-12-12T21:24:11.916Z,23.81
2022-12-12T21:29:19.155Z,23.84
2022-12-12T21:34:26.345Z,23.79
2022-12-12T21:39:33.487Z,23.79
2022-12-12T21:44:45.507Z,23.89
2022-12-12T21:49:47.839Z,23.99
2022-12-12T21:54:54.992Z,23.99
2022-12-12T22:00:02.211Z,23.96
2022-12-12T22:05:09.363Z,23.95
2022-12-12T22:10:16.570Z,23.89
2022-12-12T22:15:23.764Z,23.87
2022-12-12T22:20:30.962Z,23.92
2022-12-12T22:25:38.222Z,23.96
2022-12-12T22:30:45.456Z,23.95
2022-12-12T22:35:52.607Z,23.90
2022-12-12T22:40:59.833Z,24.02
2022-12-12T22:46:07.142Z,24.14
2022-12-12T22:51:14.207Z,24.20
2022-12-12T22:56:21.422Z,24.19
2022-12-12T23:01:28.679Z,24.19
2022-12-12T23:06:35.855Z,24.15
2022-12-12T23:11:43.018Z,24.12
2022-12-12T23:16:50.281Z,24.03
2022-12-12T23:21:57.411Z,24.04
2022-12-12T23:27:04.652Z,23.98
2022-12-12T23:32:11.892Z,23.96
2022-12-12T23:37:19.111Z,24.06
2022-12-12T23:42:26.259Z,24.15
2022-12-12T23:47:33.462Z,24.27
2022-12-12T23:52:40.682Z,24.29
2022-12-12T23:57:47.891Z,24.19
